sensor_id;sensor_type;location;lat;lon;timestamp;P1;P2;P0
55754;PMS5003;41674;52.290;-1.474;2023-04-09T00:02:11;24;21;
55754;PMS5003;41674;52.290;-1.474;2023-04-09T00:04:40;27;23;
55754;PMS5003;41674;52.290;-1.474;2023-04-09T00:07:09;24;20;
55754;PMS5003;41674;52.290;-1.474;2023-04-09T00:09:38;19;19;
55754;PMS5003;41674;52.290;-1.474;2023-04-09T00:12:07;26;25;
55754;PMS5003;41674;52.290;-1.474;2023-04-09T00:14:37;23;22;
55754;PMS5003;41674;52.290;-1.474;2023-04-09T00:17:06;22;18;
55754;PMS5003;41674;52.290;-1.474;2023-04-09T00:19:35;26;26;
55754;PMS5003;41674;52.290;-1.474;2023-04-09T00:22:05;26;24;
55754;PMS5003;41674;52.290;-1.474;2023-04-09T00:24:34;27;24;
55754;PMS5003;41674;52.290;-1.474;2023-04-09T00:27:04;24;23;
55754;PMS5003;41674;52.290;-1.474;2023-04-09T00:29:33;23;22;
55754;PMS5003;41674;52.290;-1.474;2023-04-09T00:32:03;29;29;
55754;PMS5003;41674;52.290;-1.474;2023-04-09T00:34:33;26;22;
55754;PMS5003;41674;52.290;-1.474;2023-04-09T00:37:01;26;21;
55754;PMS5003;41674;52.290;-1.474;2023-04-09T00:39:32;25;23;
55754;PMS5003;41674;52.290;-1.474;2023-04-09T00:42:01;32;24;
55754;PMS5003;41674;52.290;-1.474;2023-04-09T00:44:30;27;23;
55754;PMS5003;41674;52.290;-1.474;2023-04-09T00:47:00;24;23;
55754;PMS5003;41674;52.290;-1.474;2023-04-09T00:49:29;29;27;
55754;PMS5003;41674;52.290;-1.474;2023-04-09T00:51:58;28;25;
55754;PMS5003;41674;52.290;-1.474;2023-04-09T00:54:28;32;25;
55754;PMS5003;41674;52.290;-1.474;2023-04-09T00:56:58;31;27;
55754;PMS5003;41674;52.290;-1.474;2023-04-09T00:59:27;28;27;
55754;PMS5003;41674;52.290;-1.474;2023-04-09T01:01:57;27;24;
55754;PMS5003;41674;52.290;-1.474;2023-04-09T01:04:26;32;28;
55754;PMS5003;41674;52.290;-1.474;2023-04-09T01:06:57;29;26;
55754;PMS5003;41674;52.290;-1.474;2023-04-09T01:09:26;30;23;
55754;PMS5003;41674;52.290;-1.474;2023-04-09T01:11:58;27;26;
55754;PMS5003;41674;52.290;-1.474;2023-04-09T01:14:26;25;24;
55754;PMS5003;41674;52.290;-1.474;2023-04-09T01:16:56;25;24;
55754;PMS5003;41674;52.290;-1.474;2023-04-09T01:19:30;26;21;
55754;PMS5003;41674;52.290;-1.474;2023-04-09T01:21:53;33;26;
55754;PMS5003;41674;52.290;-1.474;2023-04-09T01:24:26;30;24;
55754;PMS5003;41674;52.290;-1.474;2023-04-09T01:26:53;22;22;
55754;PMS5003;41674;52.290;-1.474;2023-04-09T01:29:22;26;23;
55754;PMS5003;41674;52.290;-1.474;2023-04-09T01:31:51;28;24;
55754;PMS5003;41674;52.290;-1.474;2023-04-09T01:34:21;32;26;
55754;PMS5003;41674;52.290;-1.474;2023-04-09T01:36:52;31;26;
55754;PMS5003;41674;52.290;-1.474;2023-04-09T01:39:20;30;28;
55754;PMS5003;41674;52.290;-1.474;2023-04-09T01:41:50;27;26;
55754;PMS5003;41674;52.290;-1.474;2023-04-09T01:46:48;32;25;
55754;PMS5003;41674;52.290;-1.474;2023-04-09T01:49:17;28;24;
55754;PMS5003;41674;52.290;-1.474;2023-04-09T01:51:46;30;27;
55754;PMS5003;41674;52.290;-1.474;2023-04-09T01:54:16;32;24;
55754;PMS5003;41674;52.290;-1.474;2023-04-09T01:56:46;32;29;
55754;PMS5003;41674;52.290;-1.474;2023-04-09T01:59:15;31;30;
55754;PMS5003;41674;52.290;-1.474;2023-04-09T02:01:45;33;30;
55754;PMS5003;41674;52.290;-1.474;2023-04-09T02:04:17;27;26;
55754;PMS5003;41674;52.290;-1.474;2023-04-09T02:06:46;34;31;
55754;PMS5003;41674;52.290;-1.474;2023-04-09T02:09:13;34;31;
55754;PMS5003;41674;52.290;-1.474;2023-04-09T02:11:43;35;32;
55754;PMS5003;41674;52.290;-1.474;2023-04-09T02:14:12;32;30;
55754;PMS5003;41674;52.290;-1.474;2023-04-09T02:16:42;30;25;
55754;PMS5003;41674;52.290;-1.474;2023-04-09T02:19:11;27;27;
55754;PMS5003;41674;52.290;-1.474;2023-04-09T02:21:40;33;30;
55754;PMS5003;41674;52.290;-1.474;2023-04-09T02:24:09;31;29;
55754;PMS5003;41674;52.290;-1.474;2023-04-09T02:26:39;35;31;
55754;PMS5003;41674;52.290;-1.474;2023-04-09T02:29:08;33;31;
55754;PMS5003;41674;52.290;-1.474;2023-04-09T02:31:37;35;28;
55754;PMS5003;41674;52.290;-1.474;2023-04-09T02:34:07;35;30;
55754;PMS5003;41674;52.290;-1.474;2023-04-09T02:36:36;38;31;
55754;PMS5003;41674;52.290;-1.474;2023-04-09T02:39:06;31;29;
55754;PMS5003;41674;52.290;-1.474;2023-04-09T02:41:35;37;28;
55754;PMS5003;41674;52.290;-1.474;2023-04-09T02:44:05;34;28;
55754;PMS5003;41674;52.290;-1.474;2023-04-09T02:46:34;36;29;
55754;PMS5003;41674;52.290;-1.474;2023-04-09T02:49:03;26;25;
55754;PMS5003;41674;52.290;-1.474;2023-04-09T02:51:33;35;32;
55754;PMS5003;41674;52.290;-1.474;2023-04-09T02:54:01;36;33;
55754;PMS5003;41674;52.290;-1.474;2023-04-09T02:56:31;33;30;
55754;PMS5003;41674;52.290;-1.474;2023-04-09T02:59:00;36;31;
55754;PMS5003;41674;52.290;-1.474;2023-04-09T03:01:29;36;32;
55754;PMS5003;41674;52.290;-1.474;2023-04-09T03:03:59;37;32;
55754;PMS5003;41674;52.290;-1.474;2023-04-09T03:06:28;40;36;
55754;PMS5003;41674;52.290;-1.474;2023-04-09T03:08:58;41;31;
55754;PMS5003;41674;52.290;-1.474;2023-04-09T03:11:27;34;30;
55754;PMS5003;41674;52.290;-1.474;2023-04-09T03:13:57;38;33;
55754;PMS5003;41674;52.290;-1.474;2023-04-09T03:16:26;34;31;
55754;PMS5003;41674;52.290;-1.474;2023-04-09T03:18:56;38;34;
55754;PMS5003;41674;52.290;-1.474;2023-04-09T03:21:26;27;27;
55754;PMS5003;41674;52.290;-1.474;2023-04-09T03:23:55;34;33;
55754;PMS5003;41674;52.290;-1.474;2023-04-09T03:26:24;37;32;
55754;PMS5003;41674;52.290;-1.474;2023-04-09T03:28:54;36;32;
55754;PMS5003;41674;52.290;-1.474;2023-04-09T03:31:23;34;32;
55754;PMS5003;41674;52.290;-1.474;2023-04-09T03:33:52;40;35;
55754;PMS5003;41674;52.290;-1.474;2023-04-09T03:36:22;39;35;
55754;PMS5003;41674;52.290;-1.474;2023-04-09T03:38:57;38;34;
55754;PMS5003;41674;52.290;-1.474;2023-04-09T03:41:21;41;36;
55754;PMS5003;41674;52.290;-1.474;2023-04-09T03:43:51;41;33;
55754;PMS5003;41674;52.290;-1.474;2023-04-09T03:46:21;37;34;
55754;PMS5003;41674;52.290;-1.474;2023-04-09T03:48:50;43;37;
55754;PMS5003;41674;52.290;-1.474;2023-04-09T03:51:20;37;33;
55754;PMS5003;41674;52.290;-1.474;2023-04-09T03:53:49;37;35;
55754;PMS5003;41674;52.290;-1.474;2023-04-09T03:56:19;33;30;
55754;PMS5003;41674;52.290;-1.474;2023-04-09T03:58:48;39;36;
55754;PMS5003;41674;52.290;-1.474;2023-04-09T04:01:18;52;41;
55754;PMS5003;41674;52.290;-1.474;2023-04-09T04:03:47;50;39;
55754;PMS5003;41674;52.290;-1.474;2023-04-09T04:06:16;44;42;
55754;PMS5003;41674;52.290;-1.474;2023-04-09T04:08:45;53;43;
55754;PMS5003;41674;52.290;-1.474;2023-04-09T04:11:15;54;42;
55754;PMS5003;41674;52.290;-1.474;2023-04-09T04:13:44;49;42;
55754;PMS5003;41674;52.290;-1.474;2023-04-09T04:16:14;55;48;
55754;PMS5003;41674;52.290;-1.474;2023-04-09T04:18:43;47;43;
55754;PMS5003;41674;52.290;-1.474;2023-04-09T04:21:12;56;46;
55754;PMS5003;41674;52.290;-1.474;2023-04-09T04:23:42;59;47;
55754;PMS5003;41674;52.290;-1.474;2023-04-09T04:26:12;66;53;
55754;PMS5003;41674;52.290;-1.474;2023-04-09T04:28:41;60;50;
55754;PMS5003;41674;52.290;-1.474;2023-04-09T04:31:11;60;50;
55754;PMS5003;41674;52.290;-1.474;2023-04-09T04:33:40;61;49;
55754;PMS5003;41674;52.290;-1.474;2023-04-09T04:36:10;53;49;
55754;PMS5003;41674;52.290;-1.474;2023-04-09T04:38:39;56;49;
55754;PMS5003;41674;52.290;-1.474;2023-04-09T04:41:13;56;49;
55754;PMS5003;41674;52.290;-1.474;2023-04-09T04:43:38;59;50;
55754;PMS5003;41674;52.290;-1.474;2023-04-09T04:46:07;58;50;
55754;PMS5003;41674;52.290;-1.474;2023-04-09T04:48:37;60;50;
55754;PMS5003;41674;52.290;-1.474;2023-04-09T04:51:06;69;53;
55754;PMS5003;41674;52.290;-1.474;2023-04-09T04:53:35;62;52;
55754;PMS5003;41674;52.290;-1.474;2023-04-09T04:56:05;60;49;
55754;PMS5003;41674;52.290;-1.474;2023-04-09T04:58:34;61;48;
55754;PMS5003;41674;52.290;-1.474;2023-04-09T05:01:04;54;46;
55754;PMS5003;41674;52.290;-1.474;2023-04-09T05:03:33;61;47;
55754;PMS5003;41674;52.290;-1.474;2023-04-09T05:06:03;74;60;
55754;PMS5003;41674;52.290;-1.474;2023-04-09T05:08:33;58;54;
55754;PMS5003;41674;52.290;-1.474;2023-04-09T05:11:03;56;47;
55754;PMS5003;41674;52.290;-1.474;2023-04-09T05:13:32;62;51;
55754;PMS5003;41674;52.290;-1.474;2023-04-09T05:16:02;67;54;
55754;PMS5003;41674;52.290;-1.474;2023-04-09T05:18:32;63;56;
55754;PMS5003;41674;52.290;-1.474;2023-04-09T05:21:01;66;55;
55754;PMS5003;41674;52.290;-1.474;2023-04-09T05:23:30;63;52;
55754;PMS5003;41674;52.290;-1.474;2023-04-09T05:25:59;66;59;
55754;PMS5003;41674;52.290;-1.474;2023-04-09T05:28:29;61;49;
55754;PMS5003;41674;52.290;-1.474;2023-04-09T05:30:58;63;46;
55754;PMS5003;41674;52.290;-1.474;2023-04-09T05:33:27;70;52;
55754;PMS5003;41674;52.290;-1.474;2023-04-09T05:35:56;58;48;
55754;PMS5003;41674;52.290;-1.474;2023-04-09T05:38:26;69;54;
55754;PMS5003;41674;52.290;-1.474;2023-04-09T05:40:55;53;48;
55754;PMS5003;41674;52.290;-1.474;2023-04-09T05:43:25;58;48;
55754;PMS5003;41674;52.290;-1.474;2023-04-09T05:45:54;62;53;
55754;PMS5003;41674;52.290;-1.474;2023-04-09T05:48:23;60;46;
55754;PMS5003;41674;52.290;-1.474;2023-04-09T05:50:52;62;52;
55754;PMS5003;41674;52.290;-1.474;2023-04-09T05:53:22;49;45;
55754;PMS5003;41674;52.290;-1.474;2023-04-09T05:55:52;62;45;
55754;PMS5003;41674;52.290;-1.474;2023-04-09T05:58:21;59;52;
55754;PMS5003;41674;52.290;-1.474;2023-04-09T06:00:51;50;46;
55754;PMS5003;41674;52.290;-1.474;2023-04-09T06:03:20;68;48;
55754;PMS5003;41674;52.290;-1.474;2023-04-09T06:05:49;61;46;
55754;PMS5003;41674;52.290;-1.474;2023-04-09T06:08:19;55;45;
55754;PMS5003;41674;52.290;-1.474;2023-04-09T06:10:49;64;48;
55754;PMS5003;41674;52.290;-1.474;2023-04-09T06:13:18;59;50;
55754;PMS5003;41674;52.290;-1.474;2023-04-09T06:15:47;50;46;
55754;PMS5003;41674;52.290;-1.474;2023-04-09T06:18:17;62;53;
55754;PMS5003;41674;52.290;-1.474;2023-04-09T06:20:46;64;50;
55754;PMS5003;41674;52.290;-1.474;2023-04-09T06:23:16;68;54;
55754;PMS5003;41674;52.290;-1.474;2023-04-09T06:25:45;55;49;
55754;PMS5003;41674;52.290;-1.474;2023-04-09T06:28:15;53;49;
55754;PMS5003;41674;52.290;-1.474;2023-04-09T06:30:44;67;51;
55754;PMS5003;41674;52.290;-1.474;2023-04-09T06:33:14;63;50;
55754;PMS5003;41674;52.290;-1.474;2023-04-09T06:35:48;64;49;
55754;PMS5003;41674;52.290;-1.474;2023-04-09T06:38:13;60;50;
55754;PMS5003;41674;52.290;-1.474;2023-04-09T06:40:43;67;51;
55754;PMS5003;41674;52.290;-1.474;2023-04-09T06:43:12;52;48;
55754;PMS5003;41674;52.290;-1.474;2023-04-09T06:45:42;61;46;
55754;PMS5003;41674;52.290;-1.474;2023-04-09T06:48:12;55;49;
55754;PMS5003;41674;52.290;-1.474;2023-04-09T06:50:42;54;48;
55754;PMS5003;41674;52.290;-1.474;2023-04-09T06:53:11;61;48;
55754;PMS5003;41674;52.290;-1.474;2023-04-09T06:55:40;46;40;
55754;PMS5003;41674;52.290;-1.474;2023-04-09T06:58:10;55;42;
55754;PMS5003;41674;52.290;-1.474;2023-04-09T07:00:39;47;42;
55754;PMS5003;41674;52.290;-1.474;2023-04-09T07:03:08;54;46;
55754;PMS5003;41674;52.290;-1.474;2023-04-09T07:05:38;51;41;
55754;PMS5003;41674;52.290;-1.474;2023-04-09T07:08:07;55;44;
55754;PMS5003;41674;52.290;-1.474;2023-04-09T07:10:36;47;42;
55754;PMS5003;41674;52.290;-1.474;2023-04-09T07:13:06;48;41;
55754;PMS5003;41674;52.290;-1.474;2023-04-09T07:15:36;51;41;
55754;PMS5003;41674;52.290;-1.474;2023-04-09T07:18:05;51;41;
55754;PMS5003;41674;52.290;-1.474;2023-04-09T07:20:34;51;42;
55754;PMS5003;41674;52.290;-1.474;2023-04-09T07:23:04;51;44;
55754;PMS5003;41674;52.290;-1.474;2023-04-09T07:25:33;48;40;
55754;PMS5003;41674;52.290;-1.474;2023-04-09T07:28:02;56;45;
55754;PMS5003;41674;52.290;-1.474;2023-04-09T07:30:31;49;38;
55754;PMS5003;41674;52.290;-1.474;2023-04-09T07:33:01;51;43;
55754;PMS5003;41674;52.290;-1.474;2023-04-09T07:35:30;48;40;
55754;PMS5003;41674;52.290;-1.474;2023-04-09T07:38:00;55;38;
55754;PMS5003;41674;52.290;-1.474;2023-04-09T07:42:59;49;43;
55754;PMS5003;41674;52.290;-1.474;2023-04-09T07:45:28;55;46;
55754;PMS5003;41674;52.290;-1.474;2023-04-09T07:47:57;42;39;
55754;PMS5003;41674;52.290;-1.474;2023-04-09T07:50:27;44;42;
55754;PMS5003;41674;52.290;-1.474;2023-04-09T07:52:56;51;41;
55754;PMS5003;41674;52.290;-1.474;2023-04-09T07:55:26;47;39;
55754;PMS5003;41674;52.290;-1.474;2023-04-09T07:57:55;45;42;
55754;PMS5003;41674;52.290;-1.474;2023-04-09T08:00:24;53;39;
55754;PMS5003;41674;52.290;-1.474;2023-04-09T08:02:53;49;43;
55754;PMS5003;41674;52.290;-1.474;2023-04-09T08:05:22;51;42;
55754;PMS5003;41674;52.290;-1.474;2023-04-09T08:07:52;45;42;
55754;PMS5003;41674;52.290;-1.474;2023-04-09T08:10:22;47;41;
55754;PMS5003;41674;52.290;-1.474;2023-04-09T08:12:51;52;43;
55754;PMS5003;41674;52.290;-1.474;2023-04-09T08:15:21;55;45;
55754;PMS5003;41674;52.290;-1.474;2023-04-09T08:17:50;50;42;
55754;PMS5003;41674;52.290;-1.474;2023-04-09T08:20:20;48;41;
55754;PMS5003;41674;52.290;-1.474;2023-04-09T08:22:49;45;39;
55754;PMS5003;41674;52.290;-1.474;2023-04-09T08:25:19;49;38;
55754;PMS5003;41674;52.290;-1.474;2023-04-09T08:27:48;43;37;
55754;PMS5003;41674;52.290;-1.474;2023-04-09T08:30:17;51;43;
55754;PMS5003;41674;52.290;-1.474;2023-04-09T08:32:47;48;40;
55754;PMS5003;41674;52.290;-1.474;2023-04-09T08:35:16;46;39;
55754;PMS5003;41674;52.290;-1.474;2023-04-09T08:37:46;39;36;
55754;PMS5003;41674;52.290;-1.474;2023-04-09T08:40:15;49;41;
55754;PMS5003;41674;52.290;-1.474;2023-04-09T08:42:44;47;41;
55754;PMS5003;41674;52.290;-1.474;2023-04-09T08:45:14;51;41;
55754;PMS5003;41674;52.290;-1.474;2023-04-09T08:47:43;50;46;
55754;PMS5003;41674;52.290;-1.474;2023-04-09T08:50:13;56;43;
55754;PMS5003;41674;52.290;-1.474;2023-04-09T08:52:42;47;39;
55754;PMS5003;41674;52.290;-1.474;2023-04-09T08:55:11;51;40;
55754;PMS5003;41674;52.290;-1.474;2023-04-09T08:57:41;51;42;
55754;PMS5003;41674;52.290;-1.474;2023-04-09T09:00:11;49;44;
55754;PMS5003;41674;52.290;-1.474;2023-04-09T09:05:10;50;40;
55754;PMS5003;41674;52.290;-1.474;2023-04-09T09:07:44;49;44;
55754;PMS5003;41674;52.290;-1.474;2023-04-09T09:10:10;55;43;
55754;PMS5003;41674;52.290;-1.474;2023-04-09T09:12:40;55;46;
55754;PMS5003;41674;52.290;-1.474;2023-04-09T09:25:08;57;49;
55754;PMS5003;41674;52.290;-1.474;2023-04-09T09:27:36;57;47;
55754;PMS5003;41674;52.290;-1.474;2023-04-09T09:30:06;54;48;
55754;PMS5003;41674;52.290;-1.474;2023-04-09T09:32:35;57;46;
55754;PMS5003;41674;52.290;-1.474;2023-04-09T09:35:05;49;43;
55754;PMS5003;41674;52.290;-1.474;2023-04-09T09:37:34;46;43;
55754;PMS5003;41674;52.290;-1.474;2023-04-09T09:40:04;53;45;
55754;PMS5003;41674;52.290;-1.474;2023-04-09T09:42:34;57;50;
55754;PMS5003;41674;52.290;-1.474;2023-04-09T09:45:04;48;43;
55754;PMS5003;41674;52.290;-1.474;2023-04-09T09:47:33;53;48;
55754;PMS5003;41674;52.290;-1.474;2023-04-09T09:50:02;49;44;
55754;PMS5003;41674;52.290;-1.474;2023-04-09T09:52:31;51;46;
55754;PMS5003;41674;52.290;-1.474;2023-04-09T09:55:00;45;38;
55754;PMS5003;41674;52.290;-1.474;2023-04-09T09:57:30;53;43;
55754;PMS5003;41674;52.290;-1.474;2023-04-09T10:00:00;45;42;
55754;PMS5003;41674;52.290;-1.474;2023-04-09T10:02:30;58;46;
55754;PMS5003;41674;52.290;-1.474;2023-04-09T10:04:59;50;44;
55754;PMS5003;41674;52.290;-1.474;2023-04-09T10:07:27;53;46;
55754;PMS5003;41674;52.290;-1.474;2023-04-09T10:09:57;50;41;
55754;PMS5003;41674;52.290;-1.474;2023-04-09T10:12:26;46;45;
55754;PMS5003;41674;52.290;-1.474;2023-04-09T10:14:56;54;47;
55754;PMS5003;41674;52.290;-1.474;2023-04-09T10:17:25;56;43;
55754;PMS5003;41674;52.290;-1.474;2023-04-09T10:19:55;49;41;
55754;PMS5003;41674;52.290;-1.474;2023-04-09T10:22:25;49;43;
55754;PMS5003;41674;52.290;-1.474;2023-04-09T10:24:54;51;45;
55754;PMS5003;41674;52.290;-1.474;2023-04-09T10:27:23;50;40;
55754;PMS5003;41674;52.290;-1.474;2023-04-09T10:29:53;44;40;
55754;PMS5003;41674;52.290;-1.474;2023-04-09T10:32:23;49;44;
55754;PMS5003;41674;52.290;-1.474;2023-04-09T10:34:54;50;43;
55754;PMS5003;41674;52.290;-1.474;2023-04-09T10:37:22;46;44;
55754;PMS5003;41674;52.290;-1.474;2023-04-09T10:39:51;50;43;
55754;PMS5003;41674;52.290;-1.474;2023-04-09T10:42:21;47;42;
55754;PMS5003;41674;52.290;-1.474;2023-04-09T10:49:49;46;40;
55754;PMS5003;41674;52.290;-1.474;2023-04-09T10:52:18;47;39;
55754;PMS5003;41674;52.290;-1.474;2023-04-09T10:54:48;49;44;
55754;PMS5003;41674;52.290;-1.474;2023-04-09T10:57:18;46;39;
55754;PMS5003;41674;52.290;-1.474;2023-04-09T10:59:47;46;37;
55754;PMS5003;41674;52.290;-1.474;2023-04-09T11:04:46;44;39;
55754;PMS5003;41674;52.290;-1.474;2023-04-09T11:07:14;46;37;
55754;PMS5003;41674;52.290;-1.474;2023-04-09T11:09:43;44;39;
55754;PMS5003;41674;52.290;-1.474;2023-04-09T11:12:13;44;39;
55754;PMS5003;41674;52.290;-1.474;2023-04-09T11:14:42;48;41;
55754;PMS5003;41674;52.290;-1.474;2023-04-09T11:17:11;41;35;
55754;PMS5003;41674;52.290;-1.474;2023-04-09T11:19:41;42;33;
55754;PMS5003;41674;52.290;-1.474;2023-04-09T11:22:11;47;41;
55754;PMS5003;41674;52.290;-1.474;2023-04-09T11:24:40;32;30;
55754;PMS5003;41674;52.290;-1.474;2023-04-09T11:27:09;38;34;
55754;PMS5003;41674;52.290;-1.474;2023-04-09T11:29:38;32;31;
55754;PMS5003;41674;52.290;-1.474;2023-04-09T11:32:08;38;31;
55754;PMS5003;41674;52.290;-1.474;2023-04-09T11:34:38;37;32;
55754;PMS5003;41674;52.290;-1.474;2023-04-09T11:37:12;36;30;
55754;PMS5003;41674;52.290;-1.474;2023-04-09T11:39:36;34;29;
55754;PMS5003;41674;52.290;-1.474;2023-04-09T11:42:05;37;32;
55754;PMS5003;41674;52.290;-1.474;2023-04-09T11:44:35;31;30;
55754;PMS5003;41674;52.290;-1.474;2023-04-09T11:47:04;34;31;
55754;PMS5003;41674;52.290;-1.474;2023-04-09T11:49:33;36;32;
55754;PMS5003;41674;52.290;-1.474;2023-04-09T11:52:03;33;29;
55754;PMS5003;41674;52.290;-1.474;2023-04-09T11:54:33;32;28;
55754;PMS5003;41674;52.290;-1.474;2023-04-09T11:57:02;31;29;
55754;PMS5003;41674;52.290;-1.474;2023-04-09T11:59:31;34;29;
55754;PMS5003;41674;52.290;-1.474;2023-04-09T12:02:01;38;30;
55754;PMS5003;41674;52.290;-1.474;2023-04-09T12:04:29;34;32;
55754;PMS5003;41674;52.290;-1.474;2023-04-09T12:06:59;36;32;
55754;PMS5003;41674;52.290;-1.474;2023-04-09T12:09:28;33;30;
55754;PMS5003;41674;52.290;-1.474;2023-04-09T12:11:58;31;27;
55754;PMS5003;41674;52.290;-1.474;2023-04-09T12:14:27;34;28;
55754;PMS5003;41674;52.290;-1.474;2023-04-09T12:16:57;36;32;
55754;PMS5003;41674;52.290;-1.474;2023-04-09T12:19:27;31;29;
55754;PMS5003;41674;52.290;-1.474;2023-04-09T12:21:55;28;28;
55754;PMS5003;41674;52.290;-1.474;2023-04-09T12:24:25;30;28;
55754;PMS5003;41674;52.290;-1.474;2023-04-09T12:26:54;32;29;
55754;PMS5003;41674;52.290;-1.474;2023-04-09T12:29:25;31;27;
55754;PMS5003;41674;52.290;-1.474;2023-04-09T12:31:53;32;28;
55754;PMS5003;41674;52.290;-1.474;2023-04-09T12:34:23;37;32;
55754;PMS5003;41674;52.290;-1.474;2023-04-09T12:36:52;32;28;
55754;PMS5003;41674;52.290;-1.474;2023-04-09T12:39:22;33;33;
55754;PMS5003;41674;52.290;-1.474;2023-04-09T12:41:51;37;30;
55754;PMS5003;41674;52.290;-1.474;2023-04-09T12:44:21;35;32;
55754;PMS5003;41674;52.290;-1.474;2023-04-09T12:46:50;33;30;
55754;PMS5003;41674;52.290;-1.474;2023-04-09T12:49:19;34;30;
55754;PMS5003;41674;52.290;-1.474;2023-04-09T12:51:49;33;32;
55754;PMS5003;41674;52.290;-1.474;2023-04-09T12:54:19;34;31;
55754;PMS5003;41674;52.290;-1.474;2023-04-09T12:56:48;47;47;
55754;PMS5003;41674;52.290;-1.474;2023-04-09T12:59:18;34;30;
55754;PMS5003;41674;52.290;-1.474;2023-04-09T13:01:47;36;32;
55754;PMS5003;41674;52.290;-1.474;2023-04-09T13:04:17;36;31;
55754;PMS5003;41674;52.290;-1.474;2023-04-09T13:06:46;35;31;
55754;PMS5003;41674;52.290;-1.474;2023-04-09T13:09:16;33;26;
55754;PMS5003;41674;52.290;-1.474;2023-04-09T13:11:45;35;26;
55754;PMS5003;41674;52.290;-1.474;2023-04-09T13:14:15;39;34;
55754;PMS5003;41674;52.290;-1.474;2023-04-09T13:16:44;31;29;
55754;PMS5003;41674;52.290;-1.474;2023-04-09T13:19:14;38;31;
55754;PMS5003;41674;52.290;-1.474;2023-04-09T13:21:43;28;28;
55754;PMS5003;41674;52.290;-1.474;2023-04-09T13:24:13;31;27;
55754;PMS5003;41674;52.290;-1.474;2023-04-09T13:26:42;30;27;
55754;PMS5003;41674;52.290;-1.474;2023-04-09T13:29:12;28;25;
55754;PMS5003;41674;52.290;-1.474;2023-04-09T13:31:42;30;27;
55754;PMS5003;41674;52.290;-1.474;2023-04-09T13:34:11;32;26;
55754;PMS5003;41674;52.290;-1.474;2023-04-09T13:36:41;29;27;
55754;PMS5003;41674;52.290;-1.474;2023-04-09T13:39:10;36;31;
55754;PMS5003;41674;52.290;-1.474;2023-04-09T13:41:40;30;27;
55754;PMS5003;41674;52.290;-1.474;2023-04-09T13:44:09;30;26;
55754;PMS5003;41674;52.290;-1.474;2023-04-09T13:46:39;35;32;
55754;PMS5003;41674;52.290;-1.474;2023-04-09T13:49:08;35;30;
55754;PMS5003;41674;52.290;-1.474;2023-04-09T13:51:38;32;26;
55754;PMS5003;41674;52.290;-1.474;2023-04-09T13:54:07;29;26;
55754;PMS5003;41674;52.290;-1.474;2023-04-09T13:56:37;28;27;
55754;PMS5003;41674;52.290;-1.474;2023-04-09T13:59:06;27;25;
55754;PMS5003;41674;52.290;-1.474;2023-04-09T14:01:35;35;30;
55754;PMS5003;41674;52.290;-1.474;2023-04-09T14:04:05;31;29;
55754;PMS5003;41674;52.290;-1.474;2023-04-09T14:06:34;28;28;
55754;PMS5003;41674;52.290;-1.474;2023-04-09T14:09:04;33;26;
55754;PMS5003;41674;52.290;-1.474;2023-04-09T14:11:34;31;30;
55754;PMS5003;41674;52.290;-1.474;2023-04-09T14:14:04;29;29;
55754;PMS5003;41674;52.290;-1.474;2023-04-09T14:16:33;36;30;
55754;PMS5003;41674;52.290;-1.474;2023-04-09T14:19:03;30;27;
55754;PMS5003;41674;52.290;-1.474;2023-04-09T14:21:32;28;25;
55754;PMS5003;41674;52.290;-1.474;2023-04-09T14:24:01;29;26;
55754;PMS5003;41674;52.290;-1.474;2023-04-09T14:26:30;32;27;
55754;PMS5003;41674;52.290;-1.474;2023-04-09T14:29:00;25;22;
55754;PMS5003;41674;52.290;-1.474;2023-04-09T14:31:29;33;29;
55754;PMS5003;41674;52.290;-1.474;2023-04-09T14:34:00;34;30;
55754;PMS5003;41674;52.290;-1.474;2023-04-09T14:36:29;36;29;
55754;PMS5003;41674;52.290;-1.474;2023-04-09T14:38:59;32;27;
55754;PMS5003;41674;52.290;-1.474;2023-04-09T14:41:28;31;29;
55754;PMS5003;41674;52.290;-1.474;2023-04-09T14:43:58;33;30;
55754;PMS5003;41674;52.290;-1.474;2023-04-09T14:46:27;32;27;
55754;PMS5003;41674;52.290;-1.474;2023-04-09T14:48:57;26;23;
55754;PMS5003;41674;52.290;-1.474;2023-04-09T14:51:27;29;23;
55754;PMS5003;41674;52.290;-1.474;2023-04-09T14:53:57;32;27;
55754;PMS5003;41674;52.290;-1.474;2023-04-09T14:56:26;27;25;
55754;PMS5003;41674;52.290;-1.474;2023-04-09T14:58:55;29;29;
55754;PMS5003;41674;52.290;-1.474;2023-04-09T15:01:25;23;21;
55754;PMS5003;41674;52.290;-1.474;2023-04-09T15:03:54;32;26;
55754;PMS5003;41674;52.290;-1.474;2023-04-09T15:06:24;27;26;
55754;PMS5003;41674;52.290;-1.474;2023-04-09T15:08:54;26;25;
55754;PMS5003;41674;52.290;-1.474;2023-04-09T15:11:23;25;25;
55754;PMS5003;41674;52.290;-1.474;2023-04-09T15:13:52;27;25;
55754;PMS5003;41674;52.290;-1.474;2023-04-09T15:16:22;30;26;
55754;PMS5003;41674;52.290;-1.474;2023-04-09T15:18:52;24;21;
55754;PMS5003;41674;52.290;-1.474;2023-04-09T15:21:21;21;19;
55754;PMS5003;41674;52.290;-1.474;2023-04-09T15:23:50;31;24;
55754;PMS5003;41674;52.290;-1.474;2023-04-09T15:26:20;23;19;
55754;PMS5003;41674;52.290;-1.474;2023-04-09T15:28:49;28;25;
55754;PMS5003;41674;52.290;-1.474;2023-04-09T15:31:19;27;23;
55754;PMS5003;41674;52.290;-1.474;2023-04-09T15:33:49;25;24;
55754;PMS5003;41674;52.290;-1.474;2023-04-09T15:36:18;22;21;
55754;PMS5003;41674;52.290;-1.474;2023-04-09T15:38:48;26;21;
55754;PMS5003;41674;52.290;-1.474;2023-04-09T15:41:18;24;22;
55754;PMS5003;41674;52.290;-1.474;2023-04-09T15:43:47;25;20;
55754;PMS5003;41674;52.290;-1.474;2023-04-09T15:46:17;28;23;
55754;PMS5003;41674;52.290;-1.474;2023-04-09T15:48:47;27;23;
55754;PMS5003;41674;52.290;-1.474;2023-04-09T15:51:16;28;20;
55754;PMS5003;41674;52.290;-1.474;2023-04-09T15:53:46;25;25;
55754;PMS5003;41674;52.290;-1.474;2023-04-09T15:56:16;27;22;
55754;PMS5003;41674;52.290;-1.474;2023-04-09T16:01:15;23;21;
55754;PMS5003;41674;52.290;-1.474;2023-04-09T16:03:44;29;26;
55754;PMS5003;41674;52.290;-1.474;2023-04-09T16:06:14;30;29;
55754;PMS5003;41674;52.290;-1.474;2023-04-09T16:08:44;29;26;
55754;PMS5003;41674;52.290;-1.474;2023-04-09T16:11:13;31;28;
55754;PMS5003;41674;52.290;-1.474;2023-04-09T16:13:42;30;28;
55754;PMS5003;41674;52.290;-1.474;2023-04-09T16:16:12;23;22;
55754;PMS5003;41674;52.290;-1.474;2023-04-09T16:18:41;25;24;
55754;PMS5003;41674;52.290;-1.474;2023-04-09T16:21:11;26;22;
55754;PMS5003;41674;52.290;-1.474;2023-04-09T16:23:40;26;25;
55754;PMS5003;41674;52.290;-1.474;2023-04-09T16:26:09;24;20;
55754;PMS5003;41674;52.290;-1.474;2023-04-09T16:28:39;26;24;
55754;PMS5003;41674;52.290;-1.474;2023-04-09T16:31:08;21;21;
55754;PMS5003;41674;52.290;-1.474;2023-04-09T16:33:38;27;27;
55754;PMS5003;41674;52.290;-1.474;2023-04-09T16:36:07;22;21;
55754;PMS5003;41674;52.290;-1.474;2023-04-09T16:38:37;29;28;
55754;PMS5003;41674;52.290;-1.474;2023-04-09T16:41:07;29;27;
55754;PMS5003;41674;52.290;-1.474;2023-04-09T16:43:36;24;24;